sensor_id;sensor_type;location;lat;lon;timestamp;P1;P2;P0
80639;PMS5003;69992;60.170;24.692;2024-03-07T00:01:09;11;8;
80639;PMS5003;69992;60.170;24.692;2024-03-07T00:03:35;7;6;
80639;PMS5003;69992;60.170;24.692;2024-03-07T00:05:59;5;5;
80639;PMS5003;69992;60.170;24.692;2024-03-07T00:08:24;5;5;
80639;PMS5003;69992;60.170;24.692;2024-03-07T00:10:50;5;5;
80639;PMS5003;69992;60.170;24.692;2024-03-07T00:13:15;5;5;
80639;PMS5003;69992;60.170;24.692;2024-03-07T00:15:40;5;5;
80639;PMS5003;69992;60.170;24.692;2024-03-07T00:18:05;6;3;
80639;PMS5003;69992;60.170;24.692;2024-03-07T00:20:30;3;3;
80639;PMS5003;69992;60.170;24.692;2024-03-07T00:22:55;5;3;
80639;PMS5003;69992;60.170;24.692;2024-03-07T00:25:20;5;5;
80639;PMS5003;69992;60.170;24.692;2024-03-07T00:27:45;5;5;
80639;PMS5003;69992;60.170;24.692;2024-03-07T00:30:15;5;3;
80639;PMS5003;69992;60.170;24.692;2024-03-07T00:32:40;3;3;
80639;PMS5003;69992;60.170;24.692;2024-03-07T00:35:04;5;3;
80639;PMS5003;69992;60.170;24.692;2024-03-07T00:37:25;3;3;
80639;PMS5003;69992;60.170;24.692;2024-03-07T00:39:50;6;5;
80639;PMS5003;69992;60.170;24.692;2024-03-07T00:42:15;3;3;
80639;PMS5003;69992;60.170;24.692;2024-03-07T00:44:40;7;5;
80639;PMS5003;69992;60.170;24.692;2024-03-07T00:47:07;5;3;
80639;PMS5003;69992;60.170;24.692;2024-03-07T00:49:31;3;3;
80639;PMS5003;69992;60.170;24.692;2024-03-07T00:51:57;6;3;
80639;PMS5003;69992;60.170;24.692;2024-03-07T00:54:21;3;2;
80639;PMS5003;69992;60.170;24.692;2024-03-07T00:56:46;3;3;
80639;PMS5003;69992;60.170;24.692;2024-03-07T00:59:13;5;2;
80639;PMS5003;69992;60.170;24.692;2024-03-07T01:01:37;5;5;
80639;PMS5003;69992;60.170;24.692;2024-03-07T01:04:02;5;5;
80639;PMS5003;69992;60.170;24.692;2024-03-07T01:06:27;5;5;
80639;PMS5003;69992;60.170;24.692;2024-03-07T01:08:52;3;3;
80639;PMS5003;69992;60.170;24.692;2024-03-07T01:11:20;6;5;
80639;PMS5003;69992;60.170;24.692;2024-03-07T01:13:42;6;5;
80639;PMS5003;69992;60.170;24.692;2024-03-07T01:16:07;5;3;
80639;PMS5003;69992;60.170;24.692;2024-03-07T01:18:32;6;5;
80639;PMS5003;69992;60.170;24.692;2024-03-07T01:20:57;3;3;
80639;PMS5003;69992;60.170;24.692;2024-03-07T01:23:22;5;5;
80639;PMS5003;69992;60.170;24.692;2024-03-07T01:25:48;5;2;
80639;PMS5003;69992;60.170;24.692;2024-03-07T01:28:13;7;6;
80639;PMS5003;69992;60.170;24.692;2024-03-07T01:30:38;5;5;
80639;PMS5003;69992;60.170;24.692;2024-03-07T01:33:03;3;3;
80639;PMS5003;69992;60.170;24.692;2024-03-07T01:35:28;3;3;
80639;PMS5003;69992;60.170;24.692;2024-03-07T01:37:53;6;5;
80639;PMS5003;69992;60.170;24.692;2024-03-07T01:40:18;9;6;
80639;PMS5003;69992;60.170;24.692;2024-03-07T01:42:43;6;5;
80639;PMS5003;69992;60.170;24.692;2024-03-07T01:45:09;34;29;
80639;PMS5003;69992;60.170;24.692;2024-03-07T01:47:34;29;27;
80639;PMS5003;69992;60.170;24.692;2024-03-07T01:50:00;11;11;
80639;PMS5003;69992;60.170;24.692;2024-03-07T01:52:25;10;7;
80639;PMS5003;69992;60.170;24.692;2024-03-07T01:54:50;5;5;
80639;PMS5003;69992;60.170;24.692;2024-03-07T01:57:16;5;5;
80639;PMS5003;69992;60.170;24.692;2024-03-07T01:59:41;5;5;
80639;PMS5003;69992;60.170;24.692;2024-03-07T02:02:06;5;3;
80639;PMS5003;69992;60.170;24.692;2024-03-07T02:04:31;6;5;
80639;PMS5003;69992;60.170;24.692;2024-03-07T02:06:56;3;3;
80639;PMS5003;69992;60.170;24.692;2024-03-07T02:09:21;5;3;
80639;PMS5003;69992;60.170;24.692;2024-03-07T02:11:47;3;3;
80639;PMS5003;69992;60.170;24.692;2024-03-07T02:14:11;5;3;
80639;PMS5003;69992;60.170;24.692;2024-03-07T02:16:37;5;3;
80639;PMS5003;69992;60.170;24.692;2024-03-07T02:19:01;3;3;
80639;PMS5003;69992;60.170;24.692;2024-03-07T02:21:27;5;3;
80639;PMS5003;69992;60.170;24.692;2024-03-07T02:23:52;3;3;
80639;PMS5003;69992;60.170;24.692;2024-03-07T02:26:17;5;3;
80639;PMS5003;69992;60.170;24.692;2024-03-07T02:28:42;3;3;
80639;PMS5003;69992;60.170;24.692;2024-03-07T02:31:07;3;3;
80639;PMS5003;69992;60.170;24.692;2024-03-07T02:33:32;6;5;
80639;PMS5003;69992;60.170;24.692;2024-03-07T02:35:57;3;3;
80639;PMS5003;69992;60.170;24.692;2024-03-07T02:38:22;3;3;
80639;PMS5003;69992;60.170;24.692;2024-03-07T02:40:47;6;3;
80639;PMS5003;69992;60.170;24.692;2024-03-07T02:43:13;6;5;
80639;PMS5003;69992;60.170;24.692;2024-03-07T02:45:38;5;5;
80639;PMS5003;69992;60.170;24.692;2024-03-07T02:48:03;3;3;
80639;PMS5003;69992;60.170;24.692;2024-03-07T02:50:28;3;3;
80639;PMS5003;69992;60.170;24.692;2024-03-07T02:52:53;5;5;
80639;PMS5003;69992;60.170;24.692;2024-03-07T02:55:18;5;5;
80639;PMS5003;69992;60.170;24.692;2024-03-07T02:57:43;5;5;
80639;PMS5003;69992;60.170;24.692;2024-03-07T03:00:09;5;2;
80639;PMS5003;69992;60.170;24.692;2024-03-07T03:02:33;3;3;
80639;PMS5003;69992;60.170;24.692;2024-03-07T03:04:58;3;3;
80639;PMS5003;69992;60.170;24.692;2024-03-07T03:07:24;6;6;
80639;PMS5003;69992;60.170;24.692;2024-03-07T03:09:49;5;5;
80639;PMS5003;69992;60.170;24.692;2024-03-07T03:12:14;5;5;
80639;PMS5003;69992;60.170;24.692;2024-03-07T03:14:39;3;3;
80639;PMS5003;69992;60.170;24.692;2024-03-07T03:17:04;7;5;
80639;PMS5003;69992;60.170;24.692;2024-03-07T03:19:29;5;5;
80639;PMS5003;69992;60.170;24.692;2024-03-07T03:21:54;5;3;
80639;PMS5003;69992;60.170;24.692;2024-03-07T03:24:19;6;5;
80639;PMS5003;69992;60.170;24.692;2024-03-07T03:26:45;5;5;
80639;PMS5003;69992;60.170;24.692;2024-03-07T03:29:10;3;3;
80639;PMS5003;69992;60.170;24.692;2024-03-07T03:31:35;3;3;
80639;PMS5003;69992;60.170;24.692;2024-03-07T03:34:03;3;3;
80639;PMS5003;69992;60.170;24.692;2024-03-07T03:36:25;5;3;
80639;PMS5003;69992;60.170;24.692;2024-03-07T03:38:50;6;5;
80639;PMS5003;69992;60.170;24.692;2024-03-07T03:41:16;5;5;
80639;PMS5003;69992;60.170;24.692;2024-03-07T03:43:41;2;2;
80639;PMS5003;69992;60.170;24.692;2024-03-07T03:46:09;6;5;
80639;PMS5003;69992;60.170;24.692;2024-03-07T03:48:31;7;6;
80639;PMS5003;69992;60.170;24.692;2024-03-07T03:50:56;5;3;
80639;PMS5003;69992;60.170;24.692;2024-03-07T03:53:21;6;6;
80639;PMS5003;69992;60.170;24.692;2024-03-07T03:55:46;5;5;
80639;PMS5003;69992;60.170;24.692;2024-03-07T03:58:12;5;3;
80639;PMS5003;69992;60.170;24.692;2024-03-07T04:00:37;5;3;
80639;PMS5003;69992;60.170;24.692;2024-03-07T04:03:02;7;7;
80639;PMS5003;69992;60.170;24.692;2024-03-07T04:05:27;5;3;
80639;PMS5003;69992;60.170;24.692;2024-03-07T04:07:52;6;6;
80639;PMS5003;69992;60.170;24.692;2024-03-07T04:10:19;6;6;
80639;PMS5003;69992;60.170;24.692;2024-03-07T04:12:42;7;5;
80639;PMS5003;69992;60.170;24.692;2024-03-07T04:15:08;6;6;
80639;PMS5003;69992;60.170;24.692;2024-03-07T04:17:32;5;3;
80639;PMS5003;69992;60.170;24.692;2024-03-07T04:19:57;5;5;
80639;PMS5003;69992;60.170;24.692;2024-03-07T04:22:23;6;6;
80639;PMS5003;69992;60.170;24.692;2024-03-07T04:24:48;5;5;
80639;PMS5003;69992;60.170;24.692;2024-03-07T04:27:13;6;5;
80639;PMS5003;69992;60.170;24.692;2024-03-07T04:29:38;6;6;
80639;PMS5003;69992;60.170;24.692;2024-03-07T04:32:04;6;5;
80639;PMS5003;69992;60.170;24.692;2024-03-07T04:34:31;5;3;
80639;PMS5003;69992;60.170;24.692;2024-03-07T04:36:53;6;5;
80639;PMS5003;69992;60.170;24.692;2024-03-07T04:39:18;5;5;
80639;PMS5003;69992;60.170;24.692;2024-03-07T04:41:45;10;9;
80639;PMS5003;69992;60.170;24.692;2024-03-07T04:44:09;20;19;
80639;PMS5003;69992;60.170;24.692;2024-03-07T04:46:34;10;10;
80639;PMS5003;69992;60.170;24.692;2024-03-07T04:49:00;10;10;
80639;PMS5003;69992;60.170;24.692;2024-03-07T04:51:24;7;6;
80639;PMS5003;69992;60.170;24.692;2024-03-07T04:53:49;6;5;
80639;PMS5003;69992;60.170;24.692;2024-03-07T04:56:15;3;3;
80639;PMS5003;69992;60.170;24.692;2024-03-07T04:58:40;6;6;
80639;PMS5003;69992;60.170;24.692;2024-03-07T05:01:06;6;5;
80639;PMS5003;69992;60.170;24.692;2024-03-07T05:03:31;6;5;
80639;PMS5003;69992;60.170;24.692;2024-03-07T05:05:56;5;5;
80639;PMS5003;69992;60.170;24.692;2024-03-07T05:08:21;3;3;
80639;PMS5003;69992;60.170;24.692;2024-03-07T05:10:46;11;10;
80639;PMS5003;69992;60.170;24.692;2024-03-07T05:13:12;15;11;
80639;PMS5003;69992;60.170;24.692;2024-03-07T05:15:37;11;11;
80639;PMS5003;69992;60.170;24.692;2024-03-07T05:18:02;13;11;
80639;PMS5003;69992;60.170;24.692;2024-03-07T05:20:27;14;13;
80639;PMS5003;69992;60.170;24.692;2024-03-07T05:22:56;9;7;
80639;PMS5003;69992;60.170;24.692;2024-03-07T05:25:18;6;5;
80639;PMS5003;69992;60.170;24.692;2024-03-07T05:27:44;7;7;
80639;PMS5003;69992;60.170;24.692;2024-03-07T05:30:08;7;7;
80639;PMS5003;69992;60.170;24.692;2024-03-07T05:32:33;7;6;
80639;PMS5003;69992;60.170;24.692;2024-03-07T05:35:02;26;18;
80639;PMS5003;69992;60.170;24.692;2024-03-07T05:37:24;9;9;
80639;PMS5003;69992;60.170;24.692;2024-03-07T05:39:49;5;5;
80639;PMS5003;69992;60.170;24.692;2024-03-07T05:42:14;5;5;
80639;PMS5003;69992;60.170;24.692;2024-03-07T05:44:40;5;5;
80639;PMS5003;69992;60.170;24.692;2024-03-07T05:47:06;6;5;
80639;PMS5003;69992;60.170;24.692;2024-03-07T05:49:30;7;7;
80639;PMS5003;69992;60.170;24.692;2024-03-07T05:51:55;11;10;
80639;PMS5003;69992;60.170;24.692;2024-03-07T05:54:21;7;6;
80639;PMS5003;69992;60.170;24.692;2024-03-07T05:56:46;10;9;
80639;PMS5003;69992;60.170;24.692;2024-03-07T05:59:14;9;7;
80639;PMS5003;69992;60.170;24.692;2024-03-07T06:01:36;9;9;
80639;PMS5003;69992;60.170;24.692;2024-03-07T06:04:01;11;9;
80639;PMS5003;69992;60.170;24.692;2024-03-07T06:06:26;10;10;
80639;PMS5003;69992;60.170;24.692;2024-03-07T06:08:51;10;10;
80639;PMS5003;69992;60.170;24.692;2024-03-07T06:11:17;12;11;
80639;PMS5003;69992;60.170;24.692;2024-03-07T06:13:42;10;10;
80639;PMS5003;69992;60.170;24.692;2024-03-07T06:16:07;12;11;
80639;PMS5003;69992;60.170;24.692;2024-03-07T06:18:32;14;11;
80639;PMS5003;69992;60.170;24.692;2024-03-07T06:20:57;9;9;
80639;PMS5003;69992;60.170;24.692;2024-03-07T06:23:22;9;9;
80639;PMS5003;69992;60.170;24.692;2024-03-07T06:25:47;12;11;
80639;PMS5003;69992;60.170;24.692;2024-03-07T06:28:14;14;10;
80639;PMS5003;69992;60.170;24.692;2024-03-07T06:30:38;11;11;
80639;PMS5003;69992;60.170;24.692;2024-03-07T06:33:03;11;11;
80639;PMS5003;69992;60.170;24.692;2024-03-07T06:35:28;8;8;
80639;PMS5003;69992;60.170;24.692;2024-03-07T06:37:53;11;11;
80639;PMS5003;69992;60.170;24.692;2024-03-07T06:40:23;11;11;
80639;PMS5003;69992;60.170;24.692;2024-03-07T06:42:45;10;10;
80639;PMS5003;69992;60.170;24.692;2024-03-07T06:45:09;8;7;
80639;PMS5003;69992;60.170;24.692;2024-03-07T06:47:34;10;10;
80639;PMS5003;69992;60.170;24.692;2024-03-07T06:49:59;11;10;
80639;PMS5003;69992;60.170;24.692;2024-03-07T06:52:24;12;12;
80639;PMS5003;69992;60.170;24.692;2024-03-07T06:54:49;10;10;
80639;PMS5003;69992;60.170;24.692;2024-03-07T06:57:17;10;10;
80639;PMS5003;69992;60.170;24.692;2024-03-07T06:59:39;10;10;
80639;PMS5003;69992;60.170;24.692;2024-03-07T07:02:04;11;11;
80639;PMS5003;69992;60.170;24.692;2024-03-07T07:04:30;11;10;
80639;PMS5003;69992;60.170;24.692;2024-03-07T07:06:55;8;7;
80639;PMS5003;69992;60.170;24.692;2024-03-07T07:09:20;12;10;
80639;PMS5003;69992;60.170;24.692;2024-03-07T07:11:45;8;8;
80639;PMS5003;69992;60.170;24.692;2024-03-07T07:14:10;6;6;
80639;PMS5003;69992;60.170;24.692;2024-03-07T07:16:35;11;11;
80639;PMS5003;69992;60.170;24.692;2024-03-07T07:19:03;11;10;
80639;PMS5003;69992;60.170;24.692;2024-03-07T07:21:26;13;11;
80639;PMS5003;69992;60.170;24.692;2024-03-07T07:23:51;11;11;
80639;PMS5003;69992;60.170;24.692;2024-03-07T07:26:16;13;13;
80639;PMS5003;69992;60.170;24.692;2024-03-07T07:28:41;13;12;
80639;PMS5003;69992;60.170;24.692;2024-03-07T07:31:06;13;13;
80639;PMS5003;69992;60.170;24.692;2024-03-07T07:33:32;16;13;
80639;PMS5003;69992;60.170;24.692;2024-03-07T07:35:57;16;16;
80639;PMS5003;69992;60.170;24.692;2024-03-07T07:38:22;13;13;
80639;PMS5003;69992;60.170;24.692;2024-03-07T07:40:47;16;16;
80639;PMS5003;69992;60.170;24.692;2024-03-07T07:43:12;15;15;
80639;PMS5003;69992;60.170;24.692;2024-03-07T07:45:41;11;10;
80639;PMS5003;69992;60.170;24.692;2024-03-07T07:48:03;13;12;
80639;PMS5003;69992;60.170;24.692;2024-03-07T07:50:28;13;11;
80639;PMS5003;69992;60.170;24.692;2024-03-07T07:52:53;11;10;
80639;PMS5003;69992;60.170;24.692;2024-03-07T07:55:18;16;13;
80639;PMS5003;69992;60.170;24.692;2024-03-07T07:57:48;11;11;
80639;PMS5003;69992;60.170;24.692;2024-03-07T08:00:09;13;12;
80639;PMS5003;69992;60.170;24.692;2024-03-07T08:02:34;9;9;
80639;PMS5003;69992;60.170;24.692;2024-03-07T08:04:59;8;8;
80639;PMS5003;69992;60.170;24.692;2024-03-07T08:07:24;11;9;
80639;PMS5003;69992;60.170;24.692;2024-03-07T08:09:49;11;11;
80639;PMS5003;69992;60.170;24.692;2024-03-07T08:12:14;12;12;
80639;PMS5003;69992;60.170;24.692;2024-03-07T08:14:39;9;8;
80639;PMS5003;69992;60.170;24.692;2024-03-07T08:17:04;9;8;
80639;PMS5003;69992;60.170;24.692;2024-03-07T08:19:30;14;13;
80639;PMS5003;69992;60.170;24.692;2024-03-07T08:21:55;13;11;
80639;PMS5003;69992;60.170;24.692;2024-03-07T08:24:21;12;11;
80639;PMS5003;69992;60.170;24.692;2024-03-07T08:26:45;13;12;
80639;PMS5003;69992;60.170;24.692;2024-03-07T08:29:11;13;13;
80639;PMS5003;69992;60.170;24.692;2024-03-07T08:31:36;13;12;
80639;PMS5003;69992;60.170;24.692;2024-03-07T08:34:01;12;11;
80639;PMS5003;69992;60.170;24.692;2024-03-07T08:36:26;9;8;
80639;PMS5003;69992;60.170;24.692;2024-03-07T08:38:51;14;12;
80639;PMS5003;69992;60.170;24.692;2024-03-07T08:41:16;9;9;
80639;PMS5003;69992;60.170;24.692;2024-03-07T08:43:42;9;9;
80639;PMS5003;69992;60.170;24.692;2024-03-07T08:46:10;9;9;
80639;PMS5003;69992;60.170;24.692;2024-03-07T08:48:32;11;11;
80639;PMS5003;69992;60.170;24.692;2024-03-07T08:50:57;8;7;
80639;PMS5003;69992;60.170;24.692;2024-03-07T08:53:22;9;9;
80639;PMS5003;69992;60.170;24.692;2024-03-07T08:55:47;12;11;
80639;PMS5003;69992;60.170;24.692;2024-03-07T08:58:13;8;8;
80639;PMS5003;69992;60.170;24.692;2024-03-07T09:00:38;9;8;
80639;PMS5003;69992;60.170;24.692;2024-03-07T09:03:03;13;13;
80639;PMS5003;69992;60.170;24.692;2024-03-07T09:05:32;11;8;
80639;PMS5003;69992;60.170;24.692;2024-03-07T09:07:54;12;9;
80639;PMS5003;69992;60.170;24.692;2024-03-07T09:10:19;9;9;
80639;PMS5003;69992;60.170;24.692;2024-03-07T09:12:44;11;9;
80639;PMS5003;69992;60.170;24.692;2024-03-07T09:15:09;13;11;
80639;PMS5003;69992;60.170;24.692;2024-03-07T09:17:35;11;9;
80639;PMS5003;69992;60.170;24.692;2024-03-07T09:20:00;11;9;
80639;PMS5003;69992;60.170;24.692;2024-03-07T09:22:25;9;9;
80639;PMS5003;69992;60.170;24.692;2024-03-07T09:24:50;14;12;
80639;PMS5003;69992;60.170;24.692;2024-03-07T09:27:15;9;9;
80639;PMS5003;69992;60.170;24.692;2024-03-07T09:29:41;13;12;
80639;PMS5003;69992;60.170;24.692;2024-03-07T09:32:06;15;13;
80639;PMS5003;69992;60.170;24.692;2024-03-07T09:34:31;10;10;
80639;PMS5003;69992;60.170;24.692;2024-03-07T09:36:57;9;9;
80639;PMS5003;69992;60.170;24.692;2024-03-07T09:39:23;9;8;
80639;PMS5003;69992;60.170;24.692;2024-03-07T09:41:48;12;10;
80639;PMS5003;69992;60.170;24.692;2024-03-07T09:44:14;12;10;
80639;PMS5003;69992;60.170;24.692;2024-03-07T09:46:39;10;10;
80639;PMS5003;69992;60.170;24.692;2024-03-07T09:49:05;12;10;
80639;PMS5003;69992;60.170;24.692;2024-03-07T09:51:30;12;12;
80639;PMS5003;69992;60.170;24.692;2024-03-07T09:53:56;15;9;
80639;PMS5003;69992;60.170;24.692;2024-03-07T09:56:21;13;10;
80639;PMS5003;69992;60.170;24.692;2024-03-07T09:58:48;10;9;
80639;PMS5003;69992;60.170;24.692;2024-03-07T10:01:13;13;12;
80639;PMS5003;69992;60.170;24.692;2024-03-07T10:03:39;10;9;
80639;PMS5003;69992;60.170;24.692;2024-03-07T10:06:04;9;9;
80639;PMS5003;69992;60.170;24.692;2024-03-07T10:08:30;8;8;
80639;PMS5003;69992;60.170;24.692;2024-03-07T10:10:55;12;12;
80639;PMS5003;69992;60.170;24.692;2024-03-07T10:13:24;10;9;
80639;PMS5003;69992;60.170;24.692;2024-03-07T10:15:46;11;10;
80639;PMS5003;69992;60.170;24.692;2024-03-07T10:18:12;11;11;
80639;PMS5003;69992;60.170;24.692;2024-03-07T10:20:38;10;10;
80639;PMS5003;69992;60.170;24.692;2024-03-07T10:23:03;10;10;
80639;PMS5003;69992;60.170;24.692;2024-03-07T10:25:29;13;11;
80639;PMS5003;69992;60.170;24.692;2024-03-07T10:27:54;11;10;
80639;PMS5003;69992;60.170;24.692;2024-03-07T10:30:20;11;10;
80639;PMS5003;69992;60.170;24.692;2024-03-07T10:32:45;13;11;
80639;PMS5003;69992;60.170;24.692;2024-03-07T10:35:10;11;10;
80639;PMS5003;69992;60.170;24.692;2024-03-07T10:37:40;11;10;
80639;PMS5003;69992;60.170;24.692;2024-03-07T10:40:02;13;13;
80639;PMS5003;69992;60.170;24.692;2024-03-07T10:42:28;10;10;
80639;PMS5003;69992;60.170;24.692;2024-03-07T10:44:52;13;13;
80639;PMS5003;69992;60.170;24.692;2024-03-07T10:47:18;11;11;
80639;PMS5003;69992;60.170;24.692;2024-03-07T10:49:47;13;11;
80639;PMS5003;69992;60.170;24.692;2024-03-07T10:52:10;10;10;
80639;PMS5003;69992;60.170;24.692;2024-03-07T10:54:37;16;14;
80639;PMS5003;69992;60.170;24.692;2024-03-07T10:57:01;13;13;
80639;PMS5003;69992;60.170;24.692;2024-03-07T10:59:26;14;13;
80639;PMS5003;69992;60.170;24.692;2024-03-07T11:01:55;9;9;
80639;PMS5003;69992;60.170;24.692;2024-03-07T11:04:17;12;12;
80639;PMS5003;69992;60.170;24.692;2024-03-07T11:06:43;10;10;
80639;PMS5003;69992;60.170;24.692;2024-03-07T11:09:08;11;11;
80639;PMS5003;69992;60.170;24.692;2024-03-07T11:11:33;10;10;
80639;PMS5003;69992;60.170;24.692;2024-03-07T11:13:59;11;11;
80639;PMS5003;69992;60.170;24.692;2024-03-07T11:16:25;10;10;
80639;PMS5003;69992;60.170;24.692;2024-03-07T11:23:44;10;10;
80639;PMS5003;69992;60.170;24.692;2024-03-07T11:26:07;12;11;
80639;PMS5003;69992;60.170;24.692;2024-03-07T11:28:33;12;11;
80639;PMS5003;69992;60.170;24.692;2024-03-07T11:33:23;16;12;
80639;PMS5003;69992;60.170;24.692;2024-03-07T11:35:53;14;12;
80639;PMS5003;69992;60.170;24.692;2024-03-07T11:38:14;16;14;
80639;PMS5003;69992;60.170;24.692;2024-03-07T11:40:43;11;11;
80639;PMS5003;69992;60.170;24.692;2024-03-07T11:43:05;12;12;
80639;PMS5003;69992;60.170;24.692;2024-03-07T11:45:30;11;10;
80639;PMS5003;69992;60.170;24.692;2024-03-07T11:47:59;12;12;
80639;PMS5003;69992;60.170;24.692;2024-03-07T11:50:21;12;11;
80639;PMS5003;69992;60.170;24.692;2024-03-07T11:52:47;12;11;
80639;PMS5003;69992;60.170;24.692;2024-03-07T11:55:12;10;10;
80639;PMS5003;69992;60.170;24.692;2024-03-07T11:57:38;15;11;
80639;PMS5003;69992;60.170;24.692;2024-03-07T12:00:04;11;10;
80639;PMS5003;69992;60.170;24.692;2024-03-07T12:02:29;13;11;
80639;PMS5003;69992;60.170;24.692;2024-03-07T12:04:55;11;11;
80639;PMS5003;69992;60.170;24.692;2024-03-07T12:07:21;11;11;
80639;PMS5003;69992;60.170;24.692;2024-03-07T12:09:46;14;12;
80639;PMS5003;69992;60.170;24.692;2024-03-07T12:12:16;13;12;
80639;PMS5003;69992;60.170;24.692;2024-03-07T12:14:37;10;10;
80639;PMS5003;69992;60.170;24.692;2024-03-07T12:17:03;12;10;
80639;PMS5003;69992;60.170;24.692;2024-03-07T12:19:28;12;11;
80639;PMS5003;69992;60.170;24.692;2024-03-07T12:21:56;13;11;
80639;PMS5003;69992;60.170;24.692;2024-03-07T12:24:21;13;13;
80639;PMS5003;69992;60.170;24.692;2024-03-07T12:26:49;11;11;
80639;PMS5003;69992;60.170;24.692;2024-03-07T12:29:12;11;10;
80639;PMS5003;69992;60.170;24.692;2024-03-07T12:31:37;13;13;
80639;PMS5003;69992;60.170;24.692;2024-03-07T12:34:03;12;12;
80639;PMS5003;69992;60.170;24.692;2024-03-07T12:36:28;13;12;
80639;PMS5003;69992;60.170;24.692;2024-03-07T12:38:54;13;13;
80639;PMS5003;69992;60.170;24.692;2024-03-07T12:41:20;12;12;
80639;PMS5003;69992;60.170;24.692;2024-03-07T12:43:45;11;11;
80639;PMS5003;69992;60.170;24.692;2024-03-07T12:46:10;18;14;
80639;PMS5003;69992;60.170;24.692;2024-03-07T12:48:36;16;13;
80639;PMS5003;69992;60.170;24.692;2024-03-07T12:51:05;13;13;
80639;PMS5003;69992;60.170;24.692;2024-03-07T12:53:28;14;14;
80639;PMS5003;69992;60.170;24.692;2024-03-07T12:55:53;14;13;
80639;PMS5003;69992;60.170;24.692;2024-03-07T12:58:19;14;13;
80639;PMS5003;69992;60.170;24.692;2024-03-07T13:00:45;10;10;
80639;PMS5003;69992;60.170;24.692;2024-03-07T13:03:14;13;12;
80639;PMS5003;69992;60.170;24.692;2024-03-07T13:05:36;11;10;
80639;PMS5003;69992;60.170;24.692;2024-03-07T13:08:02;9;9;
80639;PMS5003;69992;60.170;24.692;2024-03-07T13:10:28;12;12;
80639;PMS5003;69992;60.170;24.692;2024-03-07T13:12:53;11;11;
80639;PMS5003;69992;60.170;24.692;2024-03-07T13:15:22;11;11;
80639;PMS5003;69992;60.170;24.692;2024-03-07T13:17:45;14;12;
80639;PMS5003;69992;60.170;24.692;2024-03-07T13:20:11;17;15;
80639;PMS5003;69992;60.170;24.692;2024-03-07T13:22:36;13;12;
80639;PMS5003;69992;60.170;24.692;2024-03-07T13:25:01;13;13;
80639;PMS5003;69992;60.170;24.692;2024-03-07T13:27:27;12;12;
80639;PMS5003;69992;60.170;24.692;2024-03-07T13:29:53;13;12;
80639;PMS5003;69992;60.170;24.692;2024-03-07T13:32:19;15;14;
80639;PMS5003;69992;60.170;24.692;2024-03-07T13:34:45;12;12;
80639;PMS5003;69992;60.170;24.692;2024-03-07T13:37:10;13;13;
80639;PMS5003;69992;60.170;24.692;2024-03-07T13:39:36;13;13;
80639;PMS5003;69992;60.170;24.692;2024-03-07T13:42:02;12;12;
80639;PMS5003;69992;60.170;24.692;2024-03-07T13:44:28;11;11;
80639;PMS5003;69992;60.170;24.692;2024-03-07T13:46:53;14;13;
80639;PMS5003;69992;60.170;24.692;2024-03-07T13:49:19;12;11;
80639;PMS5003;69992;60.170;24.692;2024-03-07T13:51:52;15;14;
80639;PMS5003;69992;60.170;24.692;2024-03-07T13:54:10;20;18;
80639;PMS5003;69992;60.170;24.692;2024-03-07T13:56:44;14;14;
80639;PMS5003;69992;60.170;24.692;2024-03-07T13:59:11;15;13;
80639;PMS5003;69992;60.170;24.692;2024-03-07T14:01:30;17;14;
80639;PMS5003;69992;60.170;24.692;2024-03-07T14:04:03;14;11;
80639;PMS5003;69992;60.170;24.692;2024-03-07T14:06:21;11;10;
80639;PMS5003;69992;60.170;24.692;2024-03-07T14:08:52;13;13;
80639;PMS5003;69992;60.170;24.692;2024-03-07T14:13:41;11;11;
80639;PMS5003;69992;60.170;24.692;2024-03-07T14:20:56;12;11;
80639;PMS5003;69992;60.170;24.692;2024-03-07T14:23:23;12;12;
80639;PMS5003;69992;60.170;24.692;2024-03-07T14:25:48;19;13;
80639;PMS5003;69992;60.170;24.692;2024-03-07T14:28:14;19;18;
80639;PMS5003;69992;60.170;24.692;2024-03-07T14:30:40;12;12;
80639;PMS5003;69992;60.170;24.692;2024-03-07T14:33:01;10;10;
80639;PMS5003;69992;60.170;24.692;2024-03-07T14:35:30;14;13;
80639;PMS5003;69992;60.170;24.692;2024-03-07T14:37:53;16;16;
80639;PMS5003;69992;60.170;24.692;2024-03-07T14:40:17;16;13;
80639;PMS5003;69992;60.170;24.692;2024-03-07T14:42:44;11;11;
80639;PMS5003;69992;60.170;24.692;2024-03-07T14:45:09;11;11;
80639;PMS5003;69992;60.170;24.692;2024-03-07T14:47:34;12;11;
80639;PMS5003;69992;60.170;24.692;2024-03-07T14:50:00;12;12;
80639;PMS5003;69992;60.170;24.692;2024-03-07T14:52:25;17;16;
80639;PMS5003;69992;60.170;24.692;2024-03-07T14:54:50;19;18;
80639;PMS5003;69992;60.170;24.692;2024-03-07T14:57:15;22;19;
80639;PMS5003;69992;60.170;24.692;2024-03-07T14:59:41;25;24;
80639;PMS5003;69992;60.170;24.692;2024-03-07T15:02:06;18;17;
80639;PMS5003;69992;60.170;24.692;2024-03-07T15:04:32;12;12;
80639;PMS5003;69992;60.170;24.692;2024-03-07T15:06:57;12;11;
80639;PMS5003;69992;60.170;24.692;2024-03-07T15:09:23;10;10;
80639;PMS5003;69992;60.170;24.692;2024-03-07T15:11:54;18;14;
80639;PMS5003;69992;60.170;24.692;2024-03-07T15:14:14;11;11;
80639;PMS5003;69992;60.170;24.692;2024-03-07T15:16:40;10;9;
80639;PMS5003;69992;60.170;24.692;2024-03-07T15:19:06;11;11;
80639;PMS5003;69992;60.170;24.692;2024-03-07T15:21:30;12;10;
80639;PMS5003;69992;60.170;24.692;2024-03-07T15:23:56;11;10;
80639;PMS5003;69992;60.170;24.692;2024-03-07T15:26:25;12;12;
80639;PMS5003;69992;60.170;24.692;2024-03-07T15:28:47;10;10;
80639;PMS5003;69992;60.170;24.692;2024-03-07T15:31:12;10;10;
80639;PMS5003;69992;60.170;24.692;2024-03-07T15:33:38;10;10;
80639;PMS5003;69992;60.170;24.692;2024-03-07T15:36:03;9;9;
80639;PMS5003;69992;60.170;24.692;2024-03-07T15:38:29;13;13;
80639;PMS5003;69992;60.170;24.692;2024-03-07T15:43:19;14;13;
80639;PMS5003;69992;60.170;24.692;2024-03-07T15:45:45;15;13;
80639;PMS5003;69992;60.170;24.692;2024-03-07T15:48:11;11;10;
80639;PMS5003;69992;60.170;24.692;2024-03-07T15:50:41;11;11;
80639;PMS5003;69992;60.170;24.692;2024-03-07T15:53:04;10;10;
80639;PMS5003;69992;60.170;24.692;2024-03-07T15:55:27;9;9;
80639;PMS5003;69992;60.170;24.692;2024-03-07T15:57:54;8;8;
80639;PMS5003;69992;60.170;24.692;2024-03-07T16:00:19;14;13;
80639;PMS5003;69992;60.170;24.692;2024-03-07T16:02:44;16;15;
80639;PMS5003;69992;60.170;24.692;2024-03-07T16:05:09;14;13;
80639;PMS5003;69992;60.170;24.692;2024-03-07T16:07:35;10;10;
80639;PMS5003;69992;60.170;24.692;2024-03-07T16:10:00;15;15;
80639;PMS5003;69992;60.170;24.692;2024-03-07T16:12:26;12;12;
80639;PMS5003;69992;60.170;24.692;2024-03-07T16:14:51;13;12;
80639;PMS5003;69992;60.170;24.692;2024-03-07T16:17:17;12;10;
80639;PMS5003;69992;60.170;24.692;2024-03-07T16:19:43;14;13;